Time;durP1;ratioP1;P1;durP2;ratioP2;P2;SDS_P1;SDS_P2;PMS_P1;PMS_P2;Temp;Humidity;BMP_temperature;BMP_pressure;BME280_temperature;BME280_humidity;BME280_pressure;Samples;Min_cycle;Max_cycle;Signal;HPM_P1;HPM_P2
2022/12/03 00:01:36;;;;;;;31.87;15.73;;;4.10;88.30;;;;;;5076069;28;20100;-77
2022/12/03 00:04:02;;;;;;;31.17;16.23;;;4.10;88.40;;;;;;5075962;28;20446;-77
2022/12/03 00:06:28;;;;;;;32.17;16.10;;;4.10;88.50;;;;;;5091563;28;20028;-77
2022/12/03 00:08:54;;;;;;;32.93;16.93;;;4.10;88.40;;;;;;5074674;28;20474;-77
2022/12/03 00:11:19;;;;;;;33.63;16.73;;;4.10;88.50;;;;;;5057941;28;20058;-77
2022/12/03 00:13:45;;;;;;;32.87;16.27;;;4.10;88.50;;;;;;5073460;28;20032;-77
2022/12/03 00:16:10;;;;;;;28.33;15.07;;;4.10;88.50;;;;;;5057740;28;20025;-77
2022/12/03 00:18:36;;;;;;;34.03;17.77;;;4.10;88.50;;;;;;5074311;28;20032;-77
2022/12/03 00:21:02;;;;;;;32.17;16.23;;;4.20;88.60;;;;;;5091299;28;20032;-77
2022/12/03 00:23:28;;;;;;;34.23;17.07;;;4.20;88.50;;;;;;5074340;28;20028;-77
2022/12/03 00:25:53;;;;;;;29.87;15.77;;;4.00;88.40;;;;;;5074298;28;20385;-76
2022/12/03 00:28:19;;;;;;;32.90;16.57;;;4.10;88.40;;;;;;5074360;28;20024;-76
2022/12/03 00:30:44;;;;;;;30.43;14.90;;;4.20;88.50;;;;;;5091223;28;20109;-76
2022/12/03 00:33:10;;;;;;;32.10;17.47;;;4.10;88.60;;;;;;5091430;28;20480;-76
2022/12/03 00:35:35;;;;;;;33.43;16.93;;;4.20;88.50;;;;;;5057355;28;20028;-76
2022/12/03 00:38:01;;;;;;;36.40;17.60;;;4.20;88.60;;;;;;5074045;28;20109;-77
2022/12/03 00:40:27;;;;;;;35.77;17.33;;;4.20;88.50;;;;;;5074045;28;20025;-77
2022/12/03 00:42:52;;;;;;;38.43;18.20;;;4.20;88.60;;;;;;5090951;28;20039;-77
2022/12/03 00:45:18;;;;;;;33.67;17.67;;;4.20;88.70;;;;;;5073939;28;20495;-77
2022/12/03 00:47:44;;;;;;;34.03;17.53;;;4.10;88.70;;;;;;5073889;28;20512;-77
2022/12/03 00:50:10;;;;;;;34.67;17.67;;;4.10;88.80;;;;;;5090789;28;20397;-77
2022/12/03 00:52:35;;;;;;;36.53;18.63;;;4.10;88.80;;;;;;5075025;28;20401;-77
2022/12/03 00:55:01;;;;;;;35.43;16.80;;;4.20;88.80;;;;;;5073715;28;20082;-77
2022/12/03 00:57:26;;;;;;;32.47;16.83;;;4.10;88.90;;;;;;5075000;28;20036;-77
2022/12/03 00:59:52;;;;;;;35.17;18.70;;;4.10;89.00;;;;;;5090571;28;20051;-77
2022/12/03 01:02:18;;;;;;;40.50;19.43;;;4.20;89.10;;;;;;5073563;28;20477;-77
2022/12/03 01:04:43;;;;;;;34.57;17.27;;;4.10;89.00;;;;;;5090461;28;20035;-77
2022/12/03 01:07:09;;;;;;;38.60;18.07;;;4.20;89.10;;;;;;5074844;28;20465;-77
2022/12/03 01:09:34;;;;;;;41.10;19.87;;;4.10;89.00;;;;;;5090373;28;20029;-77
2022/12/03 01:12:00;;;;;;;39.30;18.73;;;4.10;89.10;;;;;;5073294;28;20442;-77
2022/12/03 01:14:26;;;;;;;44.50;19.90;;;4.10;89.10;;;;;;5073239;28;20063;-77
2022/12/03 01:16:51;;;;;;;38.27;18.93;;;4.10;89.20;;;;;;5090396;28;20025;-77
2022/12/03 01:19:18;;;;;;;37.50;17.87;;;4.10;89.30;;;;;;5056827;28;20021;-77
2022/12/03 01:21:47;;;;;;;40.77;20.97;;;4.10;89.30;;;;;;5073195;28;20028;-77
2022/12/03 01:24:13;;;;;;;36.03;16.73;;;4.10;89.50;;;;;;5074505;28;20033;-77
2022/12/03 01:26:39;;;;;;;35.30;18.33;;;4.10;89.60;;;;;;5072949;28;20017;-77
2022/12/03 01:29:04;;;;;;;39.37;19.87;;;4.10;89.70;;;;;;5073162;28;20534;-77
2022/12/03 01:34:14;;;;;;;38.25;19.20;;;4.10;90.00;;;;;;5074441;28;20040;-77
2022/12/03 01:36:40;;;;;;;38.13;18.60;;;4.10;90.00;;;;;;5074279;28;20025;-77
2022/12/03 01:39:06;;;;;;;38.73;20.37;;;4.10;90.00;;;;;;5072704;28;20044;-77
2022/12/03 01:41:32;;;;;;;39.73;19.83;;;4.10;90.30;;;;;;5089825;28;20372;-77
2022/12/03 01:44:00;;;;;;;39.97;19.43;;;4.10;90.10;;;;;;5072774;28;20033;-77
2022/12/03 01:46:37;;;;;;;39.63;18.77;;;4.20;90.10;;;;;;5072743;28;20024;-77
2022/12/03 01:49:03;;;;;;;38.40;17.63;;;4.10;90.10;;;;;;5072703;28;20020;-77
2022/12/03 01:51:29;;;;;;;34.13;17.50;;;4.10;90.10;;;;;;5089465;28;20124;-77
2022/12/03 01:53:55;;;;;;;37.70;18.87;;;4.10;90.20;;;;;;5089551;28;20033;-77
2022/12/03 01:56:21;;;;;;;36.33;19.17;;;4.00;90.20;;;;;;5072582;28;20024;-77
2022/12/03 01:58:47;;;;;;;36.97;19.13;;;4.10;90.20;;;;;;5072535;28;20082;-76
2022/12/03 02:01:15;;;;;;;39.37;18.73;;;4.10;90.30;;;;;;5073811;28;20029;-77
2022/12/03 02:03:43;;;;;;;41.07;19.60;;;4.10;90.30;;;;;;5072405;28;20524;-77
2022/12/03 02:06:20;;;;;;;36.23;18.20;;;4.10;90.20;;;;;;5072331;28;20067;-77
2022/12/03 02:08:46;;;;;;;37.20;20.23;;;4.10;90.20;;;;;;5072296;28;20422;-77
2022/12/03 02:11:24;;;;;;;37.40;19.43;;;4.10;90.30;;;;;;5073494;28;20488;-77
2022/12/03 02:13:54;;;;;;;38.53;19.70;;;4.10;90.30;;;;;;5072148;28;20028;-77
2022/12/03 02:16:20;;;;;;;35.70;17.93;;;4.10;90.30;;;;;;5073437;28;20036;-77
2022/12/03 02:18:46;;;;;;;36.97;19.13;;;4.10;90.30;;;;;;5071834;28;20035;-77
2022/12/03 02:21:16;;;;;;;35.90;17.80;;;4.10;90.30;;;;;;5073355;28;20099;-77
2022/12/03 02:24:03;;;;;;;36.53;18.67;;;4.10;90.30;;;;;;5088999;28;20032;-77
2022/12/03 02:26:28;;;;;;;37.07;18.03;;;4.10;90.40;;;;;;5089012;28;20021;-77
2022/12/03 02:28:55;;;;;;;37.43;19.33;;;4.10;90.30;;;;;;5072000;28;20024;-77
2022/12/03 02:31:22;;;;;;;40.77;20.13;;;4.10;90.30;;;;;;5071698;28;20111;-77
2022/12/03 02:33:48;;;;;;;38.23;18.77;;;4.20;90.30;;;;;;5088944;28;20025;-77
2022/12/03 02:36:14;;;;;;;41.93;20.43;;;4.20;90.30;;;;;;5055125;28;20473;-77
2022/12/03 02:38:41;;;;;;;37.80;20.20;;;4.10;90.30;;;;;;5071383;28;20052;-77
2022/12/03 02:42:33;;;;;;;36.70;18.77;;;4.10;90.30;;;;;;5072673;28;20029;-77
2022/12/03 02:43:56;;;;;;;37.10;18.00;;;4.00;90.30;;;;;;5073178;28;20051;-77
2022/12/03 02:46:22;;;;;;;43.33;21.03;;;4.10;90.30;;;;;;5071912;28;20453;-77
2022/12/03 02:48:48;;;;;;;41.70;20.53;;;4.10;90.20;;;;;;5088709;28;20035;-77
2022/12/03 02:51:14;;;;;;;38.07;18.47;;;4.20;90.30;;;;;;5071918;28;20089;-77
2022/12/03 02:53:43;;;;;;;39.63;20.37;;;4.10;90.30;;;;;;5072972;28;20101;-77
2022/12/03 02:56:12;;;;;;;39.10;19.10;;;4.10;90.30;;;;;;5071663;28;20024;-77
2022/12/03 02:58:40;;;;;;;36.93;19.50;;;4.10;90.30;;;;;;5088948;28;20024;-77
2022/12/03 03:01:07;;;;;;;40.67;20.83;;;4.20;90.30;;;;;;5073020;28;20028;-77
2022/12/03 03:03:35;;;;;;;38.50;20.03;;;4.10;90.30;;;;;;5071692;28;20102;-77
2022/12/03 03:06:03;;;;;;;39.57;19.07;;;4.20;90.30;;;;;;5071728;28;20090;-77
2022/12/03 03:08:29;;;;;;;37.03;18.70;;;4.10;90.30;;;;;;5071725;28;20575;-77
2022/12/03 03:10:57;;;;;;;38.67;18.97;;;4.10;90.30;;;;;;5088513;28;20039;-77
2022/12/03 03:13:23;;;;;;;38.63;19.10;;;4.20;90.40;;;;;;5071980;28;20119;-77
2022/12/03 03:15:48;;;;;;;34.67;18.83;;;4.20;90.30;;;;;;5088306;28;20112;-77
2022/12/03 03:18:14;;;;;;;43.57;22.33;;;4.20;90.40;;;;;;5054962;28;20024;-77
2022/12/03 03:20:41;;;;;;;37.83;18.53;;;4.20;90.20;;;;;;5071642;28;20024;-77
2022/12/03 03:23:09;;;;;;;38.47;19.27;;;4.20;90.20;;;;;;5071512;28;20423;-77
2022/12/03 03:25:35;;;;;;;39.73;20.80;;;4.10;90.20;;;;;;5088422;28;20071;-77
2022/12/03 03:28:01;;;;;;;37.53;19.00;;;4.10;90.20;;;;;;5088349;28;20057;-77
2022/12/03 03:30:27;;;;;;;37.83;18.87;;;4.10;90.10;;;;;;5071560;28;20387;-77
2022/12/03 03:32:53;;;;;;;39.03;19.90;;;4.10;90.10;;;;;;5071509;28;20035;-77
2022/12/03 03:35:18;;;;;;;40.83;18.93;;;4.10;90.10;;;;;;5072568;28;20099;-77
2022/12/03 03:37:44;;;;;;;34.87;18.03;;;4.10;90.00;;;;;;5071361;28;20056;-77
2022/12/03 03:40:10;;;;;;;33.97;17.50;;;4.20;89.90;;;;;;5072699;28;20059;-76
2022/12/03 03:42:36;;;;;;;32.53;16.90;;;4.10;89.80;;;;;;5088335;28;20036;-77
2022/12/03 03:45:04;;;;;;;34.50;17.00;;;4.20;89.60;;;;;;5071207;28;20033;-77
2022/12/03 03:47:29;;;;;;;38.00;19.50;;;4.20;89.40;;;;;;5088260;28;20057;-76
2022/12/03 03:49:55;;;;;;;31.37;17.17;;;4.20;89.00;;;;;;5058093;28;20582;-77
2022/12/03 03:52:21;;;;;;;34.47;16.87;;;4.10;89.00;;;;;;5076002;28;20044;-77
2022/12/03 03:54:47;;;;;;;31.73;17.00;;;4.10;89.00;;;;;;5074762;28;20080;-77
2022/12/03 03:57:13;;;;;;;30.90;16.87;;;4.10;88.90;;;;;;5076058;28;20029;-77
2022/12/03 03:59:39;;;;;;;29.27;16.13;;;4.10;88.60;;;;;;5076154;28;20013;-77
2022/12/03 04:02:05;;;;;;;30.63;15.83;;;4.10;88.40;;;;;;5058066;28;20055;-77
2022/12/03 04:04:35;;;;;;;27.83;16.10;;;4.10;88.30;;;;;;5091812;28;20044;-77
2022/12/03 04:07:01;;;;;;;28.83;13.93;;;4.10;88.20;;;;;;5074542;28;20021;-77
2022/12/03 04:09:26;;;;;;;31.33;15.77;;;4.10;88.00;;;;;;5091537;28;20035;-77
2022/12/03 04:14:36;;;;;;;29.52;13.57;;;4.10;88.20;;;;;;5089301;28;20112;-77
2022/12/03 04:17:02;;;;;;;27.87;15.27;;;4.10;88.10;;;;;;5074598;28;20119;-77
2022/12/03 04:19:27;;;;;;;31.00;16.63;;;4.10;87.60;;;;;;5074479;28;20472;-77
2022/12/03 04:24:37;;;;;;;28.42;14.30;;;4.00;87.60;;;;;;5089235;28;20040;-77
2022/12/03 04:29:46;;;;;;;;;;;4.00;87.90;;;;;;5089466;28;20404;-77
2022/12/03 04:37:40;;;;;;;28.75;14.80;;;4.00;87.60;;;;;;5088669;28;20071;-77
2022/12/03 04:40:59;;;;;;;27.93;14.67;;;4.00;87.50;;;;;;5075354;28;20044;-77
2022/12/03 04:42:52;;;;;;;31.97;16.67;;;4.00;87.70;;;;;;5087954;28;20029;-77
2022/12/03 04:45:18;;;;;;;33.80;16.67;;;4.00;87.70;;;;;;5078826;28;20039;-77
2022/12/03 04:47:43;;;;;;;31.50;15.37;;;3.90;87.30;;;;;;5075904;28;20520;-77
2022/12/03 04:50:09;;;;;;;37.33;17.40;;;3.90;87.30;;;;;;5076189;28;20054;-77
2022/12/03 04:52:35;;;;;;;34.60;17.30;;;3.90;87.30;;;;;;5075812;28;20031;-77
2022/12/03 04:55:00;;;;;;;33.47;17.13;;;3.90;87.40;;;;;;5076419;28;20092;-77
2022/12/03 04:57:26;;;;;;;31.77;16.63;;;3.90;87.60;;;;;;5077085;28;20388;-77
2022/12/03 04:59:52;;;;;;;31.90;16.77;;;3.80;87.60;;;;;;5093355;28;20495;-77
2022/12/03 05:02:17;;;;;;;33.50;15.87;;;3.90;87.80;;;;;;5093848;28;20020;-77
2022/12/03 05:04:43;;;;;;;33.60;17.63;;;3.90;87.80;;;;;;5093900;28;20036;-77
2022/12/03 05:07:08;;;;;;;39.13;19.60;;;3.90;87.90;;;;;;5095162;28;20375;-77
2022/12/03 05:09:34;;;;;;;33.73;18.27;;;3.90;87.60;;;;;;5076821;28;20067;-77
2022/12/03 05:11:59;;;;;;;35.53;17.70;;;3.90;87.70;;;;;;5076995;28;20077;-77
2022/12/03 05:14:25;;;;;;;32.70;16.00;;;3.90;87.70;;;;;;5076776;28;20108;-77
2022/12/03 05:16:51;;;;;;;34.53;17.97;;;4.00;87.90;;;;;;5076797;28;20490;-77
2022/12/03 05:19:17;;;;;;;36.23;17.83;;;3.90;87.90;;;;;;5076729;28;20035;-77
2022/12/03 05:21:42;;;;;;;37.30;18.77;;;3.90;88.00;;;;;;5076646;28;20517;-77
2022/12/03 05:24:08;;;;;;;37.97;19.33;;;3.90;88.00;;;;;;5093929;28;20036;-77
2022/12/03 05:26:33;;;;;;;39.10;20.27;;;3.90;88.20;;;;;;5093726;28;20016;-77
2022/12/03 05:28:59;;;;;;;37.13;18.83;;;3.90;88.30;;;;;;5076521;28;20555;-77
2022/12/03 05:31:25;;;;;;;39.53;20.67;;;4.00;88.30;;;;;;5076481;28;20107;-77
2022/12/03 05:33:50;;;;;;;38.47;19.87;;;3.80;88.30;;;;;;5093389;28;20396;-77
2022/12/03 05:36:16;;;;;;;39.37;19.93;;;3.90;88.40;;;;;;5076267;28;20028;-77
2022/12/03 05:38:42;;;;;;;41.00;21.17;;;3.80;88.30;;;;;;5093120;28;20063;-77
2022/12/03 05:42:52;;;;;;;40.00;20.77;;;3.80;88.40;;;;;;5093343;28;20039;-77
2022/12/03 05:43:53;;;;;;;39.47;19.80;;;3.80;88.50;;;;;;5093274;28;20396;-77
2022/12/03 05:46:19;;;;;;;39.70;20.00;;;3.70;88.50;;;;;;5076360;28;20472;-77
2022/12/03 05:48:45;;;;;;;43.23;21.20;;;3.80;88.70;;;;;;5093148;28;20116;-77
2022/12/03 05:51:10;;;;;;;39.70;20.77;;;3.80;88.80;;;;;;5092956;28;20064;-77
2022/12/03 05:53:36;;;;;;;38.40;19.60;;;3.80;88.80;;;;;;5076232;28;20028;-77
2022/12/03 05:56:01;;;;;;;41.77;20.23;;;3.80;88.80;;;;;;5094190;28;20032;-77
2022/12/03 05:58:27;;;;;;;39.17;19.93;;;3.90;89.70;;;;;;5092861;28;20028;-77
2022/12/03 06:00:53;;;;;;;39.43;19.97;;;3.80;88.90;;;;;;5075942;28;20035;-77
2022/12/03 06:03:18;;;;;;;43.30;21.00;;;3.80;88.90;;;;;;5076017;28;20032;-77
2022/12/03 06:05:44;;;;;;;40.07;20.17;;;3.80;89.00;;;;;;5075888;28;20024;-76
2022/12/03 06:08:09;;;;;;;39.87;18.83;;;3.80;89.00;;;;;;5075769;28;20036;-77
2022/12/03 06:10:35;;;;;;;36.47;19.30;;;3.80;89.10;;;;;;5075652;28;20043;-76
2022/12/03 06:13:02;;;;;;;35.13;17.87;;;3.80;89.30;;;;;;5075470;28;20028;-76
2022/12/03 06:15:27;;;;;;;40.60;20.63;;;3.90;89.50;;;;;;5092511;28;20024;-76
2022/12/03 06:17:53;;;;;;;42.50;20.63;;;3.80;89.40;;;;;;5093794;28;20036;-77
2022/12/03 06:20:19;;;;;;;41.37;20.23;;;3.80;89.40;;;;;;5075570;28;20025;-76
2022/12/03 06:22:45;;;;;;;45.23;21.20;;;3.80;89.40;;;;;;5072816;28;20380;-76
2022/12/03 06:25:12;;;;;;;39.53;19.90;;;3.80;89.40;;;;;;5075366;28;20072;-76
2022/12/03 06:27:37;;;;;;;39.00;19.57;;;3.80;89.50;;;;;;5074049;28;20067;-76
2022/12/03 06:30:04;;;;;;;38.90;19.57;;;3.80;89.50;;;;;;5088268;28;20531;-76
2022/12/03 06:32:30;;;;;;;34.23;18.10;;;3.80;89.70;;;;;;5093587;28;20383;-76
2022/12/03 06:34:55;;;;;;;33.23;17.80;;;3.80;89.60;;;;;;5075945;28;20070;-78
2022/12/03 06:37:21;;;;;;;32.27;16.70;;;3.80;89.70;;;;;;5037525;28;20437;-76
2022/12/03 06:39:47;;;;;;;33.33;16.00;;;3.80;89.60;;;;;;5071137;28;20032;-77
2022/12/03 06:42:12;;;;;;;35.57;17.73;;;3.80;89.50;;;;;;5038650;28;20032;-76
2022/12/03 06:44:38;;;;;;;35.10;17.03;;;3.80;89.60;;;;;;5037786;28;20033;-78
2022/12/03 06:47:04;;;;;;;36.40;16.73;;;3.80;89.70;;;;;;5055234;28;20098;-77
2022/12/03 06:49:29;;;;;;;35.50;16.50;;;3.70;89.50;;;;;;5071889;28;20553;-77
2022/12/03 06:51:55;;;;;;;32.93;14.97;;;3.70;89.60;;;;;;5055322;28;20036;-77
2022/12/03 06:54:20;;;;;;;30.97;14.77;;;3.70;89.70;;;;;;5055130;28;20438;-77
2022/12/03 06:56:46;;;;;;;30.53;14.57;;;3.70;89.80;;;;;;5038450;28;20025;-77
2022/12/03 06:59:12;;;;;;;32.87;15.83;;;3.70;89.80;;;;;;5071625;28;20020;-77
2022/12/03 07:01:38;;;;;;;31.83;15.23;;;3.70;89.90;;;;;;5088604;28;20468;-77
2022/12/03 07:04:04;;;;;;;30.50;14.77;;;3.70;89.90;;;;;;5071676;28;20136;-77
2022/12/03 07:06:29;;;;;;;30.97;14.23;;;3.70;90.00;;;;;;5055012;28;20052;-77
2022/12/03 07:08:55;;;;;;;32.43;15.67;;;3.70;90.00;;;;;;5071745;28;20056;-77
2022/12/03 07:11:29;;;;;;;30.93;15.27;;;3.70;90.00;;;;;;5071473;28;20025;-78
2022/12/03 07:13:56;;;;;;;32.83;16.30;;;3.70;90.10;;;;;;5056120;28;20108;-77
2022/12/03 07:16:24;;;;;;;35.90;16.20;;;3.70;90.10;;;;;;5054829;28;20039;-77
2022/12/03 07:18:50;;;;;;;34.67;16.07;;;3.70;90.20;;;;;;5071989;28;20036;-78
2022/12/03 07:21:15;;;;;;;42.20;17.83;;;3.70;90.20;;;;;;5054943;28;20054;-78
2022/12/03 07:23:41;;;;;;;39.13;16.97;;;3.80;90.30;;;;;;5056575;28;20071;-76
2022/12/03 07:26:07;;;;;;;38.83;17.93;;;3.90;90.20;;;;;;5076846;28;20032;-77
2022/12/03 07:28:33;;;;;;;40.63;17.60;;;3.70;90.20;;;;;;5075882;28;20499;-77
2022/12/03 07:30:59;;;;;;;39.90;19.13;;;3.70;90.20;;;;;;5075427;28;20119;-77
2022/12/03 07:33:25;;;;;;;43.00;18.43;;;3.70;90.40;;;;;;5058391;28;20171;-76
2022/12/03 07:35:50;;;;;;;40.70;19.90;;;3.80;90.30;;;;;;5092064;28;20029;-77
2022/12/03 07:38:16;;;;;;;44.43;20.57;;;3.70;90.30;;;;;;5075220;28;20469;-77
2022/12/03 07:40:41;;;;;;;46.20;20.47;;;3.70;90.30;;;;;;5058552;28;20028;-77
2022/12/03 07:43:07;;;;;;;39.60;19.30;;;3.60;90.30;;;;;;5060618;28;20074;-77
2022/12/03 07:45:33;;;;;;;48.37;22.20;;;3.70;90.40;;;;;;5078280;28;20036;-77
2022/12/03 07:47:59;;;;;;;51.50;22.80;;;3.80;90.30;;;;;;5078364;28;20085;-77
2022/12/03 07:50:27;;;;;;;47.93;22.43;;;3.80;90.20;;;;;;5079091;28;20036;-77
2022/12/03 07:52:53;;;;;;;59.23;25.60;;;3.70;90.20;;;;;;5079503;28;20123;-86
2022/12/03 07:55:18;;;;;;;51.97;23.73;;;3.70;90.20;;;;;;5096083;28;20052;-86
2022/12/03 07:57:44;;;;;;;54.17;24.17;;;3.70;90.20;;;;;;5095423;28;20503;-86
2022/12/03 08:00:10;;;;;;;52.40;23.53;;;3.70;90.20;;;;;;5095541;28;20464;-85
2022/12/03 08:02:36;;;;;;;53.07;22.97;;;3.70;90.20;;;;;;5095194;28;20024;-86
2022/12/03 08:05:02;;;;;;;54.70;23.53;;;3.70;90.20;;;;;;5095480;28;20016;-86
2022/12/03 08:07:27;;;;;;;51.27;23.30;;;3.70;90.20;;;;;;5112111;28;20035;-84
2022/12/03 08:09:54;;;;;;;48.07;20.47;;;3.80;90.30;;;;;;5077441;28;20361;-85
2022/12/03 08:12:38;;;;;;;46.67;22.50;;;3.80;90.30;;;;;;5096066;28;20028;-84
2022/12/03 08:15:15;;;;;;;49.88;21.35;;;3.80;90.30;;;;;;5095378;28;20016;-84
2022/12/03 08:17:42;;;;;;;44.50;19.80;;;3.70;90.30;;;;;;5095871;28;20027;-83
2022/12/03 08:20:11;;;;;;;49.00;22.33;;;3.70;90.30;;;;;;5078598;28;20028;-85
2022/12/03 08:22:36;;;;;;;52.67;24.77;;;3.80;90.30;;;;;;5093260;28;20028;-84
2022/12/03 08:25:05;;;;;;;49.83;21.80;;;3.80;90.20;;;;;;5094938;28;20107;-84
2022/12/03 08:27:32;;;;;;;53.50;22.60;;;3.80;90.30;;;;;;5094991;28;20048;-84
2022/12/03 08:30:03;;;;;;;55.57;24.83;;;3.80;90.30;;;;;;5094800;28;20039;-84
2022/12/03 08:32:30;;;;;;;52.83;24.27;;;3.80;90.20;;;;;;5094696;28;20468;-84
2022/12/03 08:34:56;;;;;;;57.07;25.73;;;3.80;90.30;;;;;;5093625;28;20074;-85
2022/12/03 08:37:21;;;;;;;62.87;26.30;;;3.80;90.30;;;;;;5094581;28;20472;-83
2022/12/03 08:39:49;;;;;;;62.30;25.27;;;3.80;90.20;;;;;;5094521;28;20063;-84
2022/12/03 08:42:42;;;;;;;59.67;25.67;;;3.80;90.20;;;;;;5094859;28;20472;-84
2022/12/03 08:45:27;;;;;;;59.73;26.37;;;3.80;90.20;;;;;;5094455;28;20016;-84
2022/12/03 08:47:59;;;;;;;;;;;3.80;90.20;;;;;;5094712;28;20106;-83
2022/12/03 08:50:27;;;;;;;58.70;26.30;;;3.80;90.10;;;;;;5094663;28;20048;-84
2022/12/03 08:52:58;;;;;;;65.90;26.83;;;3.80;90.10;;;;;;5094342;28;20383;-84
2022/12/03 08:55:37;;;;;;;58.27;25.60;;;3.80;90.10;;;;;;5095519;28;20458;-83
2022/12/03 08:58:22;;;;;;;59.27;25.90;;;3.70;90.10;;;;;;5092471;28;20027;-83
2022/12/03 09:00:51;;;;;;;56.97;25.30;;;3.80;90.20;;;;;;5095300;28;20028;-83
2022/12/03 09:03:18;;;;;;;58.63;26.63;;;3.80;90.20;;;;;;5093836;28;20047;-83
2022/12/03 09:05:44;;;;;;;60.07;26.30;;;3.70;90.10;;;;;;5093992;28;20531;-83
2022/12/03 09:08:10;;;;;;;64.93;26.40;;;3.90;90.20;;;;;;5093984;28;20121;-82
2022/12/03 09:10:35;;;;;;;56.17;24.73;;;3.80;90.20;;;;;;5076277;28;20024;-82
2022/12/03 09:13:01;;;;;;;55.53;24.13;;;3.90;90.20;;;;;;5095433;28;20464;-82
2022/12/03 09:15:27;;;;;;;62.07;25.07;;;3.70;90.20;;;;;;5093828;28;20058;-82
2022/12/03 09:17:53;;;;;;;57.43;23.27;;;3.80;90.30;;;;;;5094039;28;20442;-83
2022/12/03 09:20:18;;;;;;;56.93;23.67;;;3.80;90.20;;;;;;5077425;28;20032;-85
2022/12/03 09:22:44;;;;;;;53.47;23.33;;;3.80;90.20;;;;;;5093966;28;20408;-84
2022/12/03 09:25:10;;;;;;;53.43;22.60;;;3.90;90.20;;;;;;5093570;28;20086;-84
2022/12/03 09:27:35;;;;;;;53.63;23.87;;;3.80;90.20;;;;;;5077996;28;20036;-84
2022/12/03 09:30:02;;;;;;;54.57;23.27;;;3.90;90.20;;;;;;5079334;28;20063;-84
2022/12/03 09:32:27;;;;;;;51.57;21.93;;;3.90;90.10;;;;;;5078525;28;20101;-82
2022/12/03 09:34:53;;;;;;;51.00;23.13;;;3.90;90.20;;;;;;5077770;28;20476;-83
2022/12/03 09:37:20;;;;;;;56.03;23.20;;;3.90;90.20;;;;;;5077591;28;20028;-82
2022/12/03 09:39:47;;;;;;;54.33;22.87;;;3.90;90.20;;;;;;5095673;28;20036;-83
2022/12/03 09:42:13;;;;;;;54.83;23.70;;;3.90;90.30;;;;;;5076393;28;20115;-83
2022/12/03 09:44:39;;;;;;;51.90;22.27;;;3.90;90.10;;;;;;5093265;28;20384;-83
2022/12/03 09:47:06;;;;;;;49.67;21.73;;;3.90;90.10;;;;;;5093205;28;20035;-83
2022/12/03 09:49:34;;;;;;;50.00;22.17;;;3.90;90.00;;;;;;5093800;28;20031;-83
2022/12/03 09:52:02;;;;;;;51.93;20.93;;;3.90;90.00;;;;;;5094641;28;20490;-83
2022/12/03 09:54:29;;;;;;;54.63;23.90;;;3.90;90.00;;;;;;5093125;28;20488;-83
2022/12/03 09:56:57;;;;;;;47.90;21.40;;;3.90;89.80;;;;;;5093091;28;20032;-83
2022/12/03 09:59:26;;;;;;;50.53;21.53;;;3.90;89.90;;;;;;5094378;28;20091;-82
2022/12/03 10:01:53;;;;;;;51.57;22.43;;;3.90;90.00;;;;;;5093030;28;20017;-81
2022/12/03 10:04:19;;;;;;;45.20;19.67;;;3.90;90.00;;;;;;5076088;28;20024;-81
2022/12/03 10:06:45;;;;;;;41.87;18.07;;;3.90;90.00;;;;;;5093056;28;20024;-82
2022/12/03 10:09:11;;;;;;;44.97;17.63;;;3.90;90.00;;;;;;5093151;28;20483;-81
2022/12/03 10:11:37;;;;;;;41.37;18.37;;;3.90;90.00;;;;;;5076042;28;20077;-81
2022/12/03 10:14:04;;;;;;;44.77;19.10;;;4.00;90.00;;;;;;5093290;28;20024;-81
2022/12/03 10:16:30;;;;;;;43.63;17.70;;;3.90;89.70;;;;;;5078276;28;20020;-81
2022/12/03 10:18:59;;;;;;;41.93;18.33;;;3.90;90.10;;;;;;5096633;28;20023;-82
2022/12/03 10:21:30;;;;;;;40.17;17.20;;;3.90;89.80;;;;;;5097301;28;20114;-81
2022/12/03 10:24:25;;;;;;;38.23;15.70;;;3.90;89.80;;;;;;5102415;28;20468;-81
2022/12/03 10:26:53;;;;;;;39.53;16.63;;;3.90;89.70;;;;;;5093067;28;20089;-82
2022/12/03 10:29:20;;;;;;;40.03;15.63;;;3.90;89.60;;;;;;5092928;28;20105;-81
2022/12/03 10:31:54;;;;;;;41.47;15.97;;;4.00;89.70;;;;;;5092641;28;20417;-81
2022/12/03 10:34:25;;;;;;;44.87;17.17;;;3.80;89.70;;;;;;5092288;28;20016;-81
2022/12/03 10:37:10;;;;;;;45.70;17.70;;;3.90;89.70;;;;;;5092398;28;20023;-81
2022/12/03 10:39:58;;;;;;;40.57;17.77;;;3.90;89.70;;;;;;5092194;28;20139;-82
2022/12/03 10:42:33;;;;;;;40.97;18.37;;;3.90;89.70;;;;;;5092227;28;20027;-82
2022/12/03 10:45:24;;;;;;;40.13;16.33;;;3.90;89.70;;;;;;5092109;28;20024;-81
2022/12/03 10:48:09;;;;;;;44.13;17.27;;;3.80;89.80;;;;;;5092094;28;20024;-81
2022/12/03 10:50:35;;;;;;;40.07;16.57;;;3.80;90.00;;;;;;5091401;28;20099;-81
2022/12/03 10:53:02;;;;;;;37.90;15.97;;;3.90;90.00;;;;;;5092008;28;20058;-81
2022/12/03 10:55:36;;;;;;;39.17;16.20;;;3.80;90.00;;;;;;5075254;28;20028;-82
2022/12/03 10:58:02;;;;;;;38.47;15.93;;;3.80;90.10;;;;;;5091589;28;20019;-81
2022/12/03 11:00:27;;;;;;;41.10;17.43;;;3.90;90.10;;;;;;5075278;28;20379;-81
2022/12/03 11:02:53;;;;;;;37.30;17.30;;;3.90;90.40;;;;;;5091916;28;20103;-82
2022/12/03 11:05:22;;;;;;;47.93;18.03;;;3.90;90.10;;;;;;5091401;28;20433;-81
2022/12/03 11:07:47;;;;;;;43.23;17.77;;;3.80;90.20;;;;;;5092354;28;20031;-86
2022/12/03 11:10:15;;;;;;;45.47;20.10;;;3.90;90.30;;;;;;5092621;28;20024;-87
2022/12/03 11:12:41;;;;;;;42.60;16.73;;;3.80;90.20;;;;;;5093457;28;20077;-85
2022/12/03 11:15:36;;;;;;;40.90;16.90;;;3.80;90.40;;;;;;5092092;28;20083;-84
2022/12/03 11:18:01;;;;;;;42.30;15.88;;;3.80;90.10;;;;;;5090452;28;20063;-85
2022/12/03 11:20:30;;;;;;;38.53;16.00;;;3.80;90.10;;;;;;5075525;28;20177;-87
2022/12/03 11:22:57;;;;;;;36.67;17.10;;;3.80;90.10;;;;;;5092430;28;20020;-87
2022/12/03 11:25:26;;;;;;;45.23;17.57;;;3.70;90.20;;;;;;5075329;28;20043;-85
2022/12/03 11:28:11;;;;;;;44.50;18.90;;;3.70;90.20;;;;;;5092454;28;20032;-85
2022/12/03 11:30:57;;;;;;;42.37;17.27;;;3.70;90.20;;;;;;5092242;28;20084;-85
2022/12/03 11:33:23;;;;;;;39.60;16.83;;;3.70;90.20;;;;;;5093592;28;20103;-85
2022/12/03 11:36:04;;;;;;;38.17;16.83;;;3.80;90.20;;;;;;5092051;28;20442;-85
2022/12/03 11:38:36;;;;;;;46.37;18.23;;;3.70;90.30;;;;;;5093072;28;20040;-85
2022/12/03 11:41:37;;;;;;;39.23;16.07;;;3.70;90.30;;;;;;5093552;28;20094;-85
2022/12/03 11:44:28;;;;;;;39.77;16.57;;;3.60;90.30;;;;;;5092244;28;20019;-84
2022/12/03 11:46:56;;;;;;;33.23;14.90;;;3.70;90.30;;;;;;5086026;28;20446;-84
2022/12/03 11:49:37;;;;;;;32.03;14.00;;;3.60;90.30;;;;;;5074700;28;20085;-84
2022/12/03 11:52:24;;;;;;;37.50;15.93;;;3.70;90.40;;;;;;5091807;28;20027;-85
2022/12/03 11:54:57;;;;;;;37.83;14.87;;;3.70;90.40;;;;;;5093052;28;20051;-84
2022/12/03 11:57:29;;;;;;;33.37;15.47;;;3.70;90.40;;;;;;5090072;28;20074;-85
2022/12/03 12:00:19;;;;;;;35.40;15.30;;;3.70;90.50;;;;;;5090348;28;20063;-85
2022/12/03 12:02:46;;;;;;;36.57;15.10;;;3.80;90.50;;;;;;5089894;28;20028;-85
2022/12/03 12:05:28;;;;;;;39.40;15.57;;;3.80;90.50;;;;;;5091823;28;20058;-83
2022/12/03 12:07:54;;;;;;;36.67;16.03;;;3.80;90.50;;;;;;5091808;28;20024;-85
2022/12/03 12:10:41;;;;;;;33.67;14.90;;;3.80;90.50;;;;;;5092497;28;20020;-85
2022/12/03 12:13:26;;;;;;;38.07;15.93;;;3.80;90.60;;;;;;5096753;28;20077;-85
2022/12/03 12:15:52;;;;;;;39.20;16.30;;;3.80;90.60;;;;;;5095743;28;20077;-85
2022/12/03 12:18:37;;;;;;;39.13;16.37;;;3.80;90.60;;;;;;5095480;28;20030;-80
2022/12/03 12:21:37;;;;;;;36.97;16.50;;;3.90;90.70;;;;;;5094526;28;20024;-84
2022/12/03 12:24:45;;;;;;;47.80;19.20;;;3.80;90.60;;;;;;5093218;28;20355;-85
2022/12/03 12:27:19;;;;;;;44.67;19.10;;;3.70;90.60;;;;;;5093649;28;20031;-85
2022/12/03 12:29:54;;;;;;;40.03;16.20;;;3.70;90.60;;;;;;5095457;28;20163;-85
2022/12/03 12:32:27;;;;;;;46.63;19.33;;;3.70;90.70;;;;;;5083783;28;20099;-86
2022/12/03 12:35:14;;;;;;;40.77;18.57;;;3.70;90.70;;;;;;5089323;28;20122;-85
2022/12/03 12:37:46;;;;;;;47.90;20.20;;;3.60;90.70;;;;;;5095501;28;20020;-85
2022/12/03 12:40:14;;;;;;;52.30;20.77;;;3.60;90.70;;;;;;5093636;28;20173;-85
2022/12/03 12:42:57;;;;;;;45.37;20.03;;;3.60;90.80;;;;;;5077825;28;20029;-84
2022/12/03 12:45:27;;;;;;;43.20;19.53;;;3.60;90.80;;;;;;5093040;28;20023;-84
2022/12/03 12:48:22;;;;;;;47.77;18.67;;;3.60;90.90;;;;;;5092456;28;20031;-85
2022/12/03 12:50:50;;;;;;;;;;;3.60;90.80;;;;;;5093802;28;20035;-84
2022/12/03 12:53:20;;;;;;;46.37;18.57;;;3.70;90.90;;;;;;5092144;28;20374;-85
2022/12/03 12:55:48;;;;;;;46.63;18.10;;;3.70;90.80;;;;;;5094326;28;20024;-85
2022/12/03 12:58:18;;;;;;;52.17;20.73;;;3.60;90.90;;;;;;5095335;28;20394;-85
2022/12/03 13:01:13;;;;;;;53.33;22.20;;;3.60;90.80;;;;;;5093901;28;20108;-86
2022/12/03 13:03:39;;;;;;;48.47;19.50;;;3.60;90.80;;;;;;5092206;28;20028;-86